PWSweather.com
Personal Weather Stations
Station Observations
IMAZOWIE6
WarszawaPL

WarszawaPL

Lat: 52.27957, Lon: 21.05489

Elevation: 100

Station Type: WS1080

http://stacjapogody.waw.pl/

High Low Average
Temperature 16.2°F-8.8°C 3.6°F-15.8°C 9.5°F-12.5°C
Dew Point -32.0°F-35.6°C -172.4°F-113.6°C -154.6°F-103.7°C
Winds 0.6 mph 1.0 kmh Calm Calm Calm NCalm N
Wind Gusts 1.4 mph2.3 kmh -- --
Humidity 12% 10% 11%
Pressure 30.22 in1023.4 mb 29.97 in1014.9 mb -
Precipitation 0.00 in0.0 mm - -
Hour Temp Dew Point Humidity Winds Wind Gusts Pressure Precip Precip Rate Daily Precip Total
12:06 AM 16.2°F-8.8°C -171.2°F-112.9°C - Calm Calm -- 29.97 in1014.9 mb 0.00 in0.0 mm 0.00 in0.0 mm 0.00 in0.0 mm
12:21 AM 16.0°F-8.9°C -171.2°F-112.9°C - Calm Calm 1.4 mph2.3 kmh 29.98 in1015.2 mb 0.00 in0.0 mm 0.00 in0.0 mm 0.00 in0.0 mm
12:36 AM 15.8°F-9.0°C -171.2°F-112.9°C - Calm Calm 1.4 mph2.3 kmh 29.98 in1015.2 mb 0.00 in0.0 mm 0.00 in0.0 mm 0.00 in0.0 mm
12:51 AM 15.6°F-9.1°C -171.2°F-112.9°C - Calm Calm 0.6 mph1.0 kmh 29.98 in1015.2 mb 0.00 in0.0 mm 0.00 in0.0 mm 0.00 in0.0 mm
01:06 AM 15.3°F-9.3°C -171.3°F-112.9°C - Calm Calm 1.4 mph2.3 kmh 29.98 in1015.2 mb 0.00 in0.0 mm 0.00 in0.0 mm 0.00 in0.0 mm
01:21 AM 14.7°F-9.6°C -171.3°F-112.9°C - Calm Calm 0.6 mph1.0 kmh 29.99 in1015.6 mb 0.00 in0.0 mm 0.00 in0.0 mm 0.00 in0.0 mm
01:36 AM 14.2°F-9.9°C -171.4°F-113.0°C - Calm Calm -- 29.99 in1015.6 mb 0.00 in0.0 mm 0.00 in0.0 mm 0.00 in0.0 mm
01:51 AM 13.8°F-10.1°C -171.4°F-113.0°C - Calm Calm -- 30.00 in1015.9 mb 0.00 in0.0 mm 0.00 in0.0 mm 0.00 in0.0 mm
02:06 AM 13.1°F-10.5°C -171.5°F-113.1°C - Calm Calm 0.6 mph1.0 kmh 30.00 in1015.9 mb 0.00 in0.0 mm 0.00 in0.0 mm 0.00 in0.0 mm
02:21 AM 12.7°F-10.7°C -171.5°F-113.1°C - Calm Calm -- 30.01 in1016.3 mb 0.00 in0.0 mm 0.00 in0.0 mm 0.00 in0.0 mm
02:36 AM 12.6°F-10.8°C -171.5°F-113.1°C - Calm Calm 0.6 mph1.0 kmh 30.01 in1016.3 mb 0.00 in0.0 mm 0.00 in0.0 mm 0.00 in0.0 mm
02:51 AM 12.2°F-11.0°C -171.6°F-113.1°C - Calm Calm -- 30.01 in1016.3 mb 0.00 in0.0 mm 0.00 in0.0 mm 0.00 in0.0 mm
03:06 AM 12.0°F-11.1°C -171.6°F-113.1°C - Calm Calm -- 30.02 in1016.6 mb 0.00 in0.0 mm 0.00 in0.0 mm 0.00 in0.0 mm
03:21 AM 12.0°F-11.1°C -171.6°F-113.1°C - Calm Calm 0.6 mph1.0 kmh 30.03 in1016.9 mb 0.00 in0.0 mm 0.00 in0.0 mm 0.00 in0.0 mm
03:36 AM 11.5°F-11.4°C -171.7°F-113.2°C - Calm Calm 0.6 mph1.0 kmh 30.04 in1017.3 mb 0.00 in0.0 mm 0.00 in0.0 mm 0.00 in0.0 mm
03:51 AM 11.1°F-11.6°C -171.7°F-113.2°C - Calm Calm 0.6 mph1.0 kmh 30.04 in1017.3 mb 0.00 in0.0 mm 0.00 in0.0 mm 0.00 in0.0 mm
04:06 AM 10.9°F-11.7°C -171.7°F-113.2°C - Calm Calm -- 30.04 in1017.3 mb 0.00 in0.0 mm 0.00 in0.0 mm 0.00 in0.0 mm
04:21 AM 10.8°F-11.8°C -171.7°F-113.2°C - Calm Calm 0.6 mph1.0 kmh 30.05 in1017.6 mb 0.00 in0.0 mm 0.00 in0.0 mm 0.00 in0.0 mm
04:36 AM 10.9°F-11.7°C -171.7°F-113.2°C - Calm Calm -- 30.05 in1017.6 mb 0.00 in0.0 mm 0.00 in0.0 mm 0.00 in0.0 mm
04:51 AM 11.1°F-11.6°C -34.6°F-37.0°C 10% Calm Calm -- 30.05 in1017.6 mb 0.00 in0.0 mm 0.00 in0.0 mm 0.00 in0.0 mm
05:06 AM 10.9°F-11.7°C -34.7°F-37.1°C 10% Calm Calm 0.6 mph1.0 kmh 30.06 in1017.9 mb 0.00 in0.0 mm 0.00 in0.0 mm 0.00 in0.0 mm
05:21 AM 10.6°F-11.9°C -33.4°F-36.3°C 11% Calm Calm -- 30.06 in1017.9 mb 0.00 in0.0 mm 0.00 in0.0 mm 0.00 in0.0 mm
05:36 AM 10.4°F-12.0°C -33.5°F-36.4°C 11% Calm Calm -- 30.07 in1018.3 mb 0.00 in0.0 mm 0.00 in0.0 mm 0.00 in0.0 mm
05:51 AM 10.0°F-12.2°C -33.8°F-36.6°C 11% Calm Calm -- 30.07 in1018.3 mb 0.00 in0.0 mm 0.00 in0.0 mm 0.00 in0.0 mm
06:06 AM 10.0°F-12.2°C -33.8°F-36.6°C 11% Calm Calm -- 30.08 in1018.6 mb 0.00 in0.0 mm 0.00 in0.0 mm 0.00 in0.0 mm
06:21 AM 10.2°F-12.1°C -32.2°F-35.7°C 12% Calm Calm 0.6 mph1.0 kmh 30.08 in1018.6 mb 0.00 in0.0 mm 0.00 in0.0 mm 0.00 in0.0 mm
06:36 AM 10.2°F-12.1°C -32.2°F-35.7°C 12% Calm Calm -- 30.08 in1018.6 mb 0.00 in0.0 mm 0.00 in0.0 mm 0.00 in0.0 mm
06:51 AM 10.2°F-12.1°C -32.2°F-35.7°C 12% Calm Calm 0.6 mph1.0 kmh 30.09 in1019.0 mb 0.00 in0.0 mm 0.00 in0.0 mm 0.00 in0.0 mm
07:06 AM 10.4°F-12.0°C -32.0°F-35.6°C 12% Calm Calm -- 30.10 in1019.3 mb 0.00 in0.0 mm 0.00 in0.0 mm 0.00 in0.0 mm
07:21 AM 10.2°F-12.1°C -33.7°F-36.5°C 11% Calm Calm 0.6 mph1.0 kmh 30.11 in1019.6 mb 0.00 in0.0 mm 0.00 in0.0 mm 0.00 in0.0 mm
07:36 AM 10.0°F-12.2°C -35.4°F-37.4°C 10% Calm Calm 0.6 mph1.0 kmh 30.12 in1020.0 mb 0.00 in0.0 mm 0.00 in0.0 mm 0.00 in0.0 mm
07:51 AM 9.9°F-12.3°C -171.8°F-113.2°C - Calm Calm 0.6 mph1.0 kmh 30.12 in1020.0 mb 0.00 in0.0 mm 0.00 in0.0 mm 0.00 in0.0 mm
08:06 AM 9.9°F-12.3°C -171.8°F-113.2°C - Calm Calm 0.6 mph1.0 kmh 30.12 in1020.0 mb 0.00 in0.0 mm 0.00 in0.0 mm 0.00 in0.0 mm
08:21 AM 11.3°F-11.5°C -171.7°F-113.2°C - Calm Calm 0.6 mph1.0 kmh 30.13 in1020.3 mb 0.00 in0.0 mm 0.00 in0.0 mm 0.00 in0.0 mm
08:36 AM 12.2°F-11.0°C -171.6°F-113.1°C - Calm Calm 0.6 mph1.0 kmh 30.14 in1020.7 mb 0.00 in0.0 mm 0.00 in0.0 mm 0.00 in0.0 mm
08:51 AM 12.7°F-10.7°C -171.5°F-113.1°C - Calm Calm 0.6 mph1.0 kmh 30.14 in1020.7 mb 0.00 in0.0 mm 0.00 in0.0 mm 0.00 in0.0 mm
09:06 AM 12.9°F-10.6°C -171.5°F-113.1°C - Calm Calm 0.6 mph1.0 kmh 30.14 in1020.7 mb 0.00 in0.0 mm 0.00 in0.0 mm 0.00 in0.0 mm
09:21 AM 13.3°F-10.4°C -171.5°F-113.1°C - Calm Calm 0.6 mph1.0 kmh 30.14 in1020.7 mb 0.00 in0.0 mm 0.00 in0.0 mm 0.00 in0.0 mm
09:36 AM 12.9°F-10.6°C -171.5°F-113.1°C - Calm Calm 0.6 mph1.0 kmh 30.15 in1021.0 mb 0.00 in0.0 mm 0.00 in0.0 mm 0.00 in0.0 mm
09:51 AM 11.7°F-11.3°C -171.6°F-113.1°C - Calm Calm 0.6 mph1.0 kmh 30.15 in1021.0 mb 0.00 in0.0 mm 0.00 in0.0 mm 0.00 in0.0 mm
10:06 AM 11.8°F-11.2°C -171.6°F-113.1°C - Calm Calm 0.6 mph1.0 kmh 30.15 in1021.0 mb 0.00 in0.0 mm 0.00 in0.0 mm 0.00 in0.0 mm
10:21 AM 10.0°F-12.2°C -171.8°F-113.2°C - Calm Calm 0.6 mph1.0 kmh 30.15 in1021.0 mb 0.00 in0.0 mm 0.00 in0.0 mm 0.00 in0.0 mm
10:36 AM 9.5°F-12.5°C -171.9°F-113.3°C - Calm Calm 0.6 mph1.0 kmh 30.15 in1021.0 mb 0.00 in0.0 mm 0.00 in0.0 mm 0.00 in0.0 mm
10:51 AM 9.7°F-12.4°C -171.8°F-113.2°C - Calm Calm 0.6 mph1.0 kmh 30.15 in1021.0 mb 0.00 in0.0 mm 0.00 in0.0 mm 0.00 in0.0 mm
11:06 AM 9.9°F-12.3°C -171.8°F-113.2°C - Calm Calm 0.6 mph1.0 kmh 30.15 in1021.0 mb 0.00 in0.0 mm 0.00 in0.0 mm 0.00 in0.0 mm
11:21 AM 9.7°F-12.4°C -171.8°F-113.2°C - Calm Calm 0.6 mph1.0 kmh 30.15 in1021.0 mb 0.00 in0.0 mm 0.00 in0.0 mm 0.00 in0.0 mm
11:36 AM 9.9°F-12.3°C -171.8°F-113.2°C - Calm Calm 1.4 mph2.3 kmh 30.14 in1020.7 mb 0.00 in0.0 mm 0.00 in0.0 mm 0.00 in0.0 mm
11:51 AM 9.9°F-12.3°C -171.8°F-113.2°C - Calm Calm 0.6 mph1.0 kmh 30.14 in1020.7 mb 0.00 in0.0 mm 0.00 in0.0 mm 0.00 in0.0 mm
12:06 PM 10.4°F-12.0°C -171.8°F-113.2°C - Calm Calm 0.6 mph1.0 kmh 30.15 in1021.0 mb 0.00 in0.0 mm 0.00 in0.0 mm 0.00 in0.0 mm
12:21 PM 10.6°F-11.9°C -171.7°F-113.2°C - Calm Calm 0.6 mph1.0 kmh 30.15 in1021.0 mb 0.00 in0.0 mm 0.00 in0.0 mm 0.00 in0.0 mm
12:36 PM 10.9°F-11.7°C -171.7°F-113.2°C - Calm Calm 0.6 mph1.0 kmh 30.15 in1021.0 mb 0.00 in0.0 mm 0.00 in0.0 mm 0.00 in0.0 mm
12:51 PM 10.8°F-11.8°C -171.7°F-113.2°C - Calm Calm 1.4 mph2.3 kmh 30.14 in1020.7 mb 0.00 in0.0 mm 0.00 in0.0 mm 0.00 in0.0 mm
01:06 PM 10.8°F-11.8°C -171.7°F-113.2°C - Calm Calm 0.6 mph1.0 kmh 30.15 in1021.0 mb 0.00 in0.0 mm 0.00 in0.0 mm 0.00 in0.0 mm
01:21 PM 10.6°F-11.9°C -171.7°F-113.2°C - Calm Calm 1.4 mph2.3 kmh 30.16 in1021.3 mb 0.00 in0.0 mm 0.00 in0.0 mm 0.00 in0.0 mm
01:36 PM 10.6°F-11.9°C -171.7°F-113.2°C - Calm Calm 1.4 mph2.3 kmh 30.16 in1021.3 mb 0.00 in0.0 mm 0.00 in0.0 mm 0.00 in0.0 mm
01:51 PM 10.6°F-11.9°C -171.7°F-113.2°C - Calm Calm 0.6 mph1.0 kmh 30.16 in1021.3 mb 0.00 in0.0 mm 0.00 in0.0 mm 0.00 in0.0 mm
02:06 PM 10.4°F-12.0°C -171.8°F-113.2°C - Calm Calm 1.4 mph2.3 kmh 30.17 in1021.7 mb 0.00 in0.0 mm 0.00 in0.0 mm 0.00 in0.0 mm
02:21 PM 10.2°F-12.1°C -171.8°F-113.2°C - 0.6 mph N1.0 kmh N 1.4 mph2.3 kmh 30.17 in1021.7 mb 0.00 in0.0 mm 0.00 in0.0 mm 0.00 in0.0 mm
02:36 PM 9.9°F-12.3°C -171.8°F-113.2°C - Calm Calm 0.6 mph1.0 kmh 30.17 in1021.7 mb 0.00 in0.0 mm 0.00 in0.0 mm 0.00 in0.0 mm
02:51 PM 10.0°F-12.2°C -171.8°F-113.2°C - Calm Calm 0.6 mph1.0 kmh 30.17 in1021.7 mb 0.00 in0.0 mm 0.00 in0.0 mm 0.00 in0.0 mm
03:06 PM 9.7°F-12.4°C -171.8°F-113.2°C - Calm Calm 0.6 mph1.0 kmh 30.17 in1021.7 mb 0.00 in0.0 mm 0.00 in0.0 mm 0.00 in0.0 mm
03:21 PM 9.5°F-12.5°C -171.9°F-113.3°C - Calm Calm 0.6 mph1.0 kmh 30.17 in1021.7 mb 0.00 in0.0 mm 0.00 in0.0 mm 0.00 in0.0 mm
03:36 PM 9.3°F-12.6°C -171.9°F-113.3°C - Calm Calm 0.6 mph1.0 kmh 30.17 in1021.7 mb 0.00 in0.0 mm 0.00 in0.0 mm 0.00 in0.0 mm
03:51 PM 9.1°F-12.7°C -171.9°F-113.3°C - Calm Calm 0.6 mph1.0 kmh 30.18 in1022.0 mb 0.00 in0.0 mm 0.00 in0.0 mm 0.00 in0.0 mm
04:06 PM 8.8°F-12.9°C -171.9°F-113.3°C - Calm Calm -- 30.19 in1022.4 mb 0.00 in0.0 mm 0.00 in0.0 mm 0.00 in0.0 mm
04:21 PM 8.6°F-13.0°C -171.9°F-113.3°C - Calm Calm 0.6 mph1.0 kmh 30.19 in1022.4 mb 0.00 in0.0 mm 0.00 in0.0 mm 0.00 in0.0 mm
04:36 PM 8.2°F-13.2°C -172.0°F-113.3°C - Calm Calm -- 30.19 in1022.4 mb 0.00 in0.0 mm 0.00 in0.0 mm 0.00 in0.0 mm
04:51 PM 7.9°F-13.4°C -172.0°F-113.3°C - Calm Calm -- 30.20 in1022.7 mb 0.00 in0.0 mm 0.00 in0.0 mm 0.00 in0.0 mm
05:06 PM 7.9°F-13.4°C -172.0°F-113.3°C - Calm Calm -- 30.21 in1023.0 mb 0.00 in0.0 mm 0.00 in0.0 mm 0.00 in0.0 mm
05:21 PM 7.9°F-13.4°C -172.0°F-113.3°C - Calm Calm -- 30.20 in1022.7 mb 0.00 in0.0 mm 0.00 in0.0 mm 0.00 in0.0 mm
05:36 PM 7.5°F-13.6°C -172.0°F-113.3°C - Calm Calm -- 30.20 in1022.7 mb 0.00 in0.0 mm 0.00 in0.0 mm 0.00 in0.0 mm
05:51 PM 7.3°F-13.7°C -172.1°F-113.4°C - Calm Calm -- 30.21 in1023.0 mb 0.00 in0.0 mm 0.00 in0.0 mm 0.00 in0.0 mm
06:06 PM 7.0°F-13.9°C -172.1°F-113.4°C - Calm Calm -- 30.21 in1023.0 mb 0.00 in0.0 mm 0.00 in0.0 mm 0.00 in0.0 mm
06:21 PM 7.0°F-13.9°C -172.1°F-113.4°C - Calm Calm 0.6 mph1.0 kmh 30.22 in1023.4 mb 0.00 in0.0 mm 0.00 in0.0 mm 0.00 in0.0 mm
06:36 PM 6.8°F-14.0°C -172.1°F-113.4°C - Calm Calm -- 30.21 in1023.0 mb 0.00 in0.0 mm 0.00 in0.0 mm 0.00 in0.0 mm
06:51 PM 6.4°F-14.2°C -172.2°F-113.4°C - Calm Calm -- 30.21 in1023.0 mb 0.00 in0.0 mm 0.00 in0.0 mm 0.00 in0.0 mm
07:06 PM 6.1°F-14.4°C -172.2°F-113.4°C - Calm Calm 0.6 mph1.0 kmh 30.21 in1023.0 mb 0.00 in0.0 mm 0.00 in0.0 mm 0.00 in0.0 mm
07:21 PM 5.9°F-14.5°C -172.2°F-113.4°C - Calm Calm -- 30.21 in1023.0 mb 0.00 in0.0 mm 0.00 in0.0 mm 0.00 in0.0 mm
07:36 PM 5.5°F-14.7°C -172.2°F-113.4°C - Calm Calm 0.6 mph1.0 kmh 30.21 in1023.0 mb 0.00 in0.0 mm 0.00 in0.0 mm 0.00 in0.0 mm
07:51 PM 5.5°F-14.7°C -172.2°F-113.4°C - Calm Calm -- 30.21 in1023.0 mb 0.00 in0.0 mm 0.00 in0.0 mm 0.00 in0.0 mm
08:06 PM 5.5°F-14.7°C -172.2°F-113.4°C - Calm Calm 0.6 mph1.0 kmh 30.21 in1023.0 mb 0.00 in0.0 mm 0.00 in0.0 mm 0.00 in0.0 mm
08:21 PM 5.2°F-14.9°C -172.3°F-113.5°C - Calm Calm -- 30.21 in1023.0 mb 0.00 in0.0 mm 0.00 in0.0 mm 0.00 in0.0 mm
08:36 PM 5.2°F-14.9°C -172.3°F-113.5°C - Calm Calm 0.6 mph1.0 kmh 30.21 in1023.0 mb 0.00 in0.0 mm 0.00 in0.0 mm 0.00 in0.0 mm
08:51 PM 5.0°F-15.0°C -172.3°F-113.5°C - Calm Calm -- 30.20 in1022.7 mb 0.00 in0.0 mm 0.00 in0.0 mm 0.00 in0.0 mm
09:06 PM 4.8°F-15.1°C -172.3°F-113.5°C - Calm Calm 1.4 mph2.3 kmh 30.20 in1022.7 mb 0.00 in0.0 mm 0.00 in0.0 mm 0.00 in0.0 mm
09:21 PM 4.6°F-15.2°C -172.3°F-113.5°C - Calm Calm -- 30.20 in1022.7 mb 0.00 in0.0 mm 0.00 in0.0 mm 0.00 in0.0 mm
09:36 PM 4.5°F-15.3°C -172.4°F-113.6°C - Calm Calm -- 30.21 in1023.0 mb 0.00 in0.0 mm 0.00 in0.0 mm 0.00 in0.0 mm
09:51 PM 4.3°F-15.4°C -172.4°F-113.6°C - Calm Calm -- 30.21 in1023.0 mb 0.00 in0.0 mm 0.00 in0.0 mm 0.00 in0.0 mm
10:06 PM 4.1°F-15.5°C -172.4°F-113.6°C - Calm Calm 0.6 mph1.0 kmh 30.20 in1022.7 mb 0.00 in0.0 mm 0.00 in0.0 mm 0.00 in0.0 mm
10:21 PM 3.9°F-15.6°C -172.4°F-113.6°C - Calm Calm -- 30.20 in1022.7 mb 0.00 in0.0 mm 0.00 in0.0 mm 0.00 in0.0 mm
10:36 PM 3.9°F-15.6°C -172.4°F-113.6°C - Calm Calm -- 30.21 in1023.0 mb 0.00 in0.0 mm 0.00 in0.0 mm 0.00 in0.0 mm
10:51 PM 4.1°F-15.5°C -172.4°F-113.6°C - Calm Calm -- 30.21 in1023.0 mb 0.00 in0.0 mm 0.00 in0.0 mm 0.00 in0.0 mm
11:06 PM 4.1°F-15.5°C -172.4°F-113.6°C - Calm Calm -- 30.20 in1022.7 mb 0.00 in0.0 mm 0.00 in0.0 mm 0.00 in0.0 mm
11:21 PM 3.7°F-15.7°C -172.4°F-113.6°C - Calm Calm -- 30.20 in1022.7 mb 0.00 in0.0 mm 0.00 in0.0 mm 0.00 in0.0 mm
11:36 PM 3.9°F-15.6°C -172.4°F-113.6°C - Calm Calm -- 30.21 in1023.0 mb 0.00 in0.0 mm 0.00 in0.0 mm 0.00 in0.0 mm
11:51 PM 3.6°F-15.8°C -172.4°F-113.6°C - Calm Calm -- 30.20 in1022.7 mb 0.00 in0.0 mm 0.00 in0.0 mm 0.00 in0.0 mm